Stateline, Nevada
Current Conditions -  °F | °C
As of 11:53 AM on Thursday 30 Oct 2014 (Local Time) from KTVL Reporting Station
Clear Clear  
Wind Chill: 47°   Ceiling: Unl
Heat Index: 49°   Visibility: 10mi
Dew Point: 35°   Wind: 5mph
Humidity: 59%   Direction: 190°S
Pressure: 30.18"   Gusts: NA
Location:  38.97°N, 119.94°W
Report Text: KTVL 301853Z AUTO 19004KT 10SM CLR 09/02 A3018 RMK AO2 SLP200 T00940017
Loading
Personal Weather Stations






























Interactive Weather Map
Tropical Storm Tracking
New forecast layout! Learn more

10-Day Weather Forecast

Advertisements
Track Severe Weather on mobile